sensor_id;sensor_type;location;lat;lon;timestamp;pressure;altitude;pressure_sealevel;temperature;humidity
7058;BME280;3570;43.080;25.628;2022-09-30T00:01:07;-19977.25;;;18.02;100.00
7058;BME280;3570;43.080;25.628;2022-09-30T00:03:53;-19985.84;;;18.32;100.00
7058;BME280;3570;43.080;25.628;2022-09-30T00:06:37;-19992.66;;;18.55;100.00
7058;BME280;3570;43.080;25.628;2022-09-30T00:09:21;-19984.38;;;18.27;100.00
7058;BME280;3570;43.080;25.628;2022-09-30T00:12:05;-19992.38;;;18.54;100.00
7058;BME280;3570;43.080;25.628;2022-09-30T00:14:49;-19996.56;;;18.69;100.00
7058;BME280;3570;43.080;25.628;2022-09-30T00:17:33;-19997.59;;;18.72;100.00
7058;BME280;3570;43.080;25.628;2022-09-30T00:20:16;-19992.06;;;18.53;100.00
7058;BME280;3570;43.080;25.628;2022-09-30T00:23:02;-19991.34;;;18.51;100.00
7058;BME280;3570;43.080;25.628;2022-09-30T00:25:46;-19987.88;;;18.39;100.00
7058;BME280;3570;43.080;25.628;2022-09-30T00:28:31;-19995.84;;;18.66;100.00
7058;BME280;3570;43.080;25.628;2022-09-30T00:31:17;-19989.63;;;18.45;100.00
7058;BME280;3570;43.080;25.628;2022-09-30T00:34:03;-19967.69;;;17.69;100.00
7058;BME280;3570;43.080;25.628;2022-09-30T00:36:52;-19955.91;;;17.28;100.00
7058;BME280;3570;43.080;25.628;2022-09-30T00:39:36;-19965.06;;;17.60;100.00
7058;BME280;3570;43.080;25.628;2022-09-30T00:42:21;-19976.53;;;18.00;100.00
7058;BME280;3570;43.080;25.628;2022-09-30T00:45:09;-19972.75;;;17.86;100.00
7058;BME280;3570;43.080;25.628;2022-09-30T00:50:42;-19927.69;;;16.31;100.00
7058;BME280;3570;43.080;25.628;2022-09-30T00:53:38;-19920.16;;;16.05;100.00
7058;BME280;3570;43.080;25.628;2022-09-30T00:56:34;-19910.84;;;15.72;100.00
7058;BME280;3570;43.080;25.628;2022-09-30T00:59:27;-19906.31;;;15.57;100.00
7058;BME280;3570;43.080;25.628;2022-09-30T01:02:11;-19905.44;;;15.54;100.00
7058;BME280;3570;43.080;25.628;2022-09-30T01:04:57;-19911.56;;;15.75;100.00
7058;BME280;3570;43.080;25.628;2022-09-30T01:07:41;-19919.13;;;16.01;100.00
7058;BME280;3570;43.080;25.628;2022-09-30T01:10:25;-19920.16;;;16.05;100.00
7058;BME280;3570;43.080;25.628;2022-09-30T01:13:08;-19939.63;;;16.72;100.00
7058;BME280;3570;43.080;25.628;2022-09-30T01:16:05;-19953.72;;;17.21;100.00
7058;BME280;3570;43.080;25.628;2022-09-30T01:22:29;-19977.25;;;18.02;100.00
7058;BME280;3570;43.080;25.628;2022-09-30T01:34:44;-19988.44;;;18.41;100.00
7058;BME280;3570;43.080;25.628;2022-09-30T01:37:43;-19977.25;;;18.02;100.00
7058;BME280;3570;43.080;25.628;2022-09-30T01:40:41;-19975.22;;;17.95;100.00
7058;BME280;3570;43.080;25.628;2022-09-30T01:43:34;-19974.78;;;17.94;100.00
7058;BME280;3570;43.080;25.628;2022-09-30T01:49:31;-19990.34;;;18.47;100.00
7058;BME280;3570;43.080;25.628;2022-09-30T01:52:27;-19989.31;;;18.44;100.00
7058;BME280;3570;43.080;25.628;2022-09-30T01:55:20;-19964.03;;;17.56;100.00
7058;BME280;3570;43.080;25.628;2022-09-30T01:58:11;-19950.69;;;17.10;100.00
7058;BME280;3570;43.080;25.628;2022-09-30T02:01:00;-19959.09;;;17.39;100.00
7058;BME280;3570;43.080;25.628;2022-09-30T02:03:52;-19958.66;;;17.38;100.00
7058;BME280;3570;43.080;25.628;2022-09-30T02:06:41;-19968.13;;;17.70;100.00
7058;BME280;3570;43.080;25.628;2022-09-30T02:09:53;-19970.88;;;17.80;100.00
7058;BME280;3570;43.080;25.628;2022-09-30T02:12:43;-19978.56;;;18.07;100.00
7058;BME280;3570;43.080;25.628;2022-09-30T02:15:34;-19963.75;;;17.55;100.00
7058;BME280;3570;43.080;25.628;2022-09-30T02:18:27;-19958.22;;;17.36;100.00
7058;BME280;3570;43.080;25.628;2022-09-30T02:21:15;-19940.50;;;16.75;100.00
7058;BME280;3570;43.080;25.628;2022-09-30T02:24:06;-19917.66;;;15.96;100.00
7058;BME280;3570;43.080;25.628;2022-09-30T02:26:54;-19906.75;;;15.58;100.00
7058;BME280;3570;43.080;25.628;2022-09-30T02:29:48;-19913.75;;;15.82;100.00
7058;BME280;3570;43.080;25.628;2022-09-30T02:32:41;-19922.75;;;16.14;100.00
7058;BME280;3570;43.080;25.628;2022-09-30T02:35:29;-19939.91;;;16.73;100.00
7058;BME280;3570;43.080;25.628;2022-09-30T02:38:18;-19953.72;;;17.21;100.00
7058;BME280;3570;43.080;25.628;2022-09-30T02:41:08;-19969.28;;;17.74;100.00
7058;BME280;3570;43.080;25.628;2022-09-30T02:43:54;-19972.31;;;17.85;100.00
7058;BME280;3570;43.080;25.628;2022-09-30T02:50:37;-19987.28;;;18.37;100.00
7058;BME280;3570;43.080;25.628;2022-09-30T02:59:29;-19977.41;;;18.03;100.00
7058;BME280;3570;43.080;25.628;2022-09-30T03:02:13;-19978.13;;;18.05;100.00
7058;BME280;3570;43.080;25.628;2022-09-30T03:04:58;-19975.38;;;17.96;100.00
7058;BME280;3570;43.080;25.628;2022-09-30T03:07:43;-19973.91;;;17.91;100.00
7058;BME280;3570;43.080;25.628;2022-09-30T03:10:28;-19982.50;;;18.20;100.00
7058;BME280;3570;43.080;25.628;2022-09-30T03:13:58;-19980.03;;;18.12;100.00
7058;BME280;3570;43.080;25.628;2022-09-30T03:17:00;-19971.03;;;17.80;100.00
7058;BME280;3570;43.080;25.628;2022-09-30T03:20:04;-19978.56;;;18.07;100.00
7058;BME280;3570;43.080;25.628;2022-09-30T03:26:02;-19980.59;;;18.14;100.00
7058;BME280;3570;43.080;25.628;2022-09-30T03:29:08;-19979.88;;;18.11;100.00
7058;BME280;3570;43.080;25.628;2022-09-30T03:41:14;-19956.19;;;17.29;100.00
7058;BME280;3570;43.080;25.628;2022-09-30T03:46:56;-19948.66;;;17.03;100.00
7058;BME280;3570;43.080;25.628;2022-09-30T03:49:51;-19950.38;;;17.09;100.00
7058;BME280;3570;43.080;25.628;2022-09-30T03:52:37;-19957.06;;;17.32;100.00
7058;BME280;3570;43.080;25.628;2022-09-30T03:55:22;-19946.75;;;16.97;100.00
7058;BME280;3570;43.080;25.628;2022-09-30T03:58:07;-19951.97;;;17.15;100.00
7058;BME280;3570;43.080;25.628;2022-09-30T04:00:52;-19936.44;;;16.61;100.00
7058;BME280;3570;43.080;25.628;2022-09-30T04:03:37;-19927.56;;;16.30;100.00
7058;BME280;3570;43.080;25.628;2022-09-30T04:06:23;-19942.97;;;16.83;100.00
7058;BME280;3570;43.080;25.628;2022-09-30T04:09:07;-19958.38;;;17.37;100.00
7058;BME280;3570;43.080;25.628;2022-09-30T04:11:51;-19955.03;;;17.25;100.00
7058;BME280;3570;43.080;25.628;2022-09-30T04:14:35;-19946.59;;;16.96;100.00
7058;BME280;3570;43.080;25.628;2022-09-30T04:17:20;-19951.69;;;17.14;100.00
7058;BME280;3570;43.080;25.628;2022-09-30T04:20:04;-19943.56;;;16.85;100.00
7058;BME280;3570;43.080;25.628;2022-09-30T04:22:48;-19944.00;;;16.87;100.00
7058;BME280;3570;43.080;25.628;2022-09-30T04:25:32;-19927.84;;;16.31;100.00
7058;BME280;3570;43.080;25.628;2022-09-30T04:28:16;-19929.16;;;16.36;100.00
7058;BME280;3570;43.080;25.628;2022-09-30T04:31:01;-19943.69;;;16.86;100.00
7058;BME280;3570;43.080;25.628;2022-09-30T04:33:46;-19951.53;;;17.13;100.00
7058;BME280;3570;43.080;25.628;2022-09-30T04:36:30;-19965.34;;;17.61;100.00
7058;BME280;3570;43.080;25.628;2022-09-30T04:39:15;-19973.91;;;17.91;100.00
7058;BME280;3570;43.080;25.628;2022-09-30T04:41:59;-19979.44;;;18.10;100.00
7058;BME280;3570;43.080;25.628;2022-09-30T04:44:43;-19982.06;;;18.19;100.00
7058;BME280;3570;43.080;25.628;2022-09-30T04:47:27;-19974.22;;;17.92;100.00
7058;BME280;3570;43.080;25.628;2022-09-30T04:50:11;-19972.91;;;17.87;100.00
7058;BME280;3570;43.080;25.628;2022-09-30T04:52:56;-19969.84;;;17.76;100.00
7058;BME280;3570;43.080;25.628;2022-09-30T04:55:41;-19973.91;;;17.91;100.00
7058;BME280;3570;43.080;25.628;2022-09-30T04:58:25;-19981.47;;;18.17;100.00
7058;BME280;3570;43.080;25.628;2022-09-30T05:01:12;-19975.38;;;17.96;100.00
7058;BME280;3570;43.080;25.628;2022-09-30T05:03:56;-19985.25;;;18.30;100.00
7058;BME280;3570;43.080;25.628;2022-09-30T05:06:40;-19989.63;;;18.45;100.00
7058;BME280;3570;43.080;25.628;2022-09-30T05:09:24;-19983.66;;;18.24;100.00
7058;BME280;3570;43.080;25.628;2022-09-30T05:12:08;-19995.13;;;18.64;100.00
7058;BME280;3570;43.080;25.628;2022-09-30T05:14:52;-19997.59;;;18.72;100.00
7058;BME280;3570;43.080;25.628;2022-09-30T05:17:36;-19992.06;;;18.53;100.00
7058;BME280;3570;43.080;25.628;2022-09-30T05:20:20;-19999.47;;;18.79;100.00
7058;BME280;3570;43.080;25.628;2022-09-30T05:23:04;-19998.47;;;18.75;100.00
7058;BME280;3570;43.080;25.628;2022-09-30T05:25:49;-19992.22;;;18.54;100.00
7058;BME280;3570;43.080;25.628;2022-09-30T05:28:34;-20000.63;;;18.83;100.00
7058;BME280;3570;43.080;25.628;2022-09-30T05:31:18;-20003.69;;;18.94;100.00
7058;BME280;3570;43.080;25.628;2022-09-30T05:34:03;-20004.84;;;18.98;100.00
7058;BME280;3570;43.080;25.628;2022-09-30T05:36:48;-19998.91;;;18.77;100.00
7058;BME280;3570;43.080;25.628;2022-09-30T05:39:31;-20005.88;;;19.01;100.00
7058;BME280;3570;43.080;25.628;2022-09-30T05:42:15;-20001.06;;;18.85;100.00
7058;BME280;3570;43.080;25.628;2022-09-30T05:44:59;-20013.41;;;19.27;100.00
7058;BME280;3570;43.080;25.628;2022-09-30T05:47:50;-20021.53;;;19.55;100.00
7058;BME280;3570;43.080;25.628;2022-09-30T05:50:35;-20019.78;;;19.49;100.00
7058;BME280;3570;43.080;25.628;2022-09-30T05:53:19;-20012.97;;;19.26;100.00
7058;BME280;3570;43.080;25.628;2022-09-30T05:56:07;-20010.22;;;19.16;100.00
7058;BME280;3570;43.080;25.628;2022-09-30T05:58:52;-20016.91;;;19.39;100.00
7058;BME280;3570;43.080;25.628;2022-09-30T06:01:36;-20025.31;;;19.68;100.00
7058;BME280;3570;43.080;25.628;2022-09-30T06:04:20;-20018.34;;;19.44;100.00
7058;BME280;3570;43.080;25.628;2022-09-30T06:07:05;-20016.75;;;19.39;100.00
7058;BME280;3570;43.080;25.628;2022-09-30T06:09:49;-20011.81;;;19.22;100.00
7058;BME280;3570;43.080;25.628;2022-09-30T06:12:34;-20031.38;;;19.90;100.00
7058;BME280;3570;43.080;25.628;2022-09-30T06:15:20;-20033.72;;;19.98;100.00
7058;BME280;3570;43.080;25.628;2022-09-30T06:18:04;-20046.75;;;20.43;100.00
7058;BME280;3570;43.080;25.628;2022-09-30T06:20:48;-20047.19;;;20.44;100.00
7058;BME280;3570;43.080;25.628;2022-09-30T06:23:32;-20056.47;;;20.77;100.00
7058;BME280;3570;43.080;25.628;2022-09-30T06:26:18;-20050.25;;;20.55;100.00
7058;BME280;3570;43.080;25.628;2022-09-30T06:29:02;-20058.34;;;20.83;100.00
7058;BME280;3570;43.080;25.628;2022-09-30T06:31:46;-20065.03;;;21.06;100.00
7058;BME280;3570;43.080;25.628;2022-09-30T06:34:29;-20066.19;;;21.10;100.00
7058;BME280;3570;43.080;25.628;2022-09-30T06:37:13;-20067.63;;;21.15;100.00
7058;BME280;3570;43.080;25.628;2022-09-30T06:39:58;-20074.13;;;21.38;100.00
7058;BME280;3570;43.080;25.628;2022-09-30T06:42:42;-20074.28;;;21.38;100.00
7058;BME280;3570;43.080;25.628;2022-09-30T06:45:27;-20080.06;;;21.59;100.00
7058;BME280;3570;43.080;25.628;2022-09-30T06:48:11;-20074.88;;;21.40;100.00
7058;BME280;3570;43.080;25.628;2022-09-30T06:50:57;-20077.31;;;21.49;100.00
7058;BME280;3570;43.080;25.628;2022-09-30T06:53:41;-20080.38;;;21.60;100.00
7058;BME280;3570;43.080;25.628;2022-09-30T06:56:26;-20078.78;;;21.54;100.00
7058;BME280;3570;43.080;25.628;2022-09-30T06:59:10;-20085.16;;;21.76;100.00
7058;BME280;3570;43.080;25.628;2022-09-30T07:01:54;-20092.25;;;22.01;100.00
7058;BME280;3570;43.080;25.628;2022-09-30T07:04:38;-20093.69;;;22.06;100.00
7058;BME280;3570;43.080;25.628;2022-09-30T07:07:22;-20096.44;;;22.15;100.00
7058;BME280;3570;43.080;25.628;2022-09-30T07:10:06;-20097.44;;;22.19;100.00
7058;BME280;3570;43.080;25.628;2022-09-30T07:12:52;-20096.00;;;22.14;100.00
7058;BME280;3570;43.080;25.628;2022-09-30T07:15:36;-20097.00;;;22.17;100.00
7058;BME280;3570;43.080;25.628;2022-09-30T07:18:21;-20105.97;;;22.48;100.00
7058;BME280;3570;43.080;25.628;2022-09-30T07:21:05;-20108.44;;;22.57;100.00
7058;BME280;3570;43.080;25.628;2022-09-30T07:26:35;-20130.56;;;23.34;98.56
7058;BME280;3570;43.080;25.628;2022-09-30T07:29:19;-20132.16;;;23.40;97.72
7058;BME280;3570;43.080;25.628;2022-09-30T07:32:03;-20135.78;;;23.52;96.14
7058;BME280;3570;43.080;25.628;2022-09-30T07:34:47;-20144.72;;;23.83;96.71
7058;BME280;3570;43.080;25.628;2022-09-30T07:37:31;-20147.03;;;23.91;95.17
7058;BME280;3570;43.080;25.628;2022-09-30T07:40:18;-20161.91;;;24.43;92.46
7058;BME280;3570;43.080;25.628;2022-09-30T07:43:02;-20161.06;;;24.40;88.29
7058;BME280;3570;43.080;25.628;2022-09-30T07:45:48;-20172.75;;;24.81;87.99
7058;BME280;3570;43.080;25.628;2022-09-30T07:48:33;-20173.03;;;24.82;84.18
7058;BME280;3570;43.080;25.628;2022-09-30T07:51:34;-20173.63;;;24.84;81.30
7058;BME280;3570;43.080;25.628;2022-09-30T07:54:22;-20178.38;;;25.00;80.20
7058;BME280;3570;43.080;25.628;2022-09-30T07:57:07;-20182.41;;;25.14;80.07
7058;BME280;3570;43.080;25.628;2022-09-30T07:59:52;-20190.22;;;25.42;78.75
7058;BME280;3570;43.080;25.628;2022-09-30T08:02:36;-20193.38;;;25.53;78.44
7058;BME280;3570;43.080;25.628;2022-09-30T08:05:20;-20190.66;;;25.43;76.49
7058;BME280;3570;43.080;25.628;2022-09-30T08:08:04;-20195.53;;;25.60;75.84
7058;BME280;3570;43.080;25.628;2022-09-30T08:10:49;-20201.31;;;25.80;74.79
7058;BME280;3570;43.080;25.628;2022-09-30T08:13:34;-20209.53;;;26.09;75.25
7058;BME280;3570;43.080;25.628;2022-09-30T08:16:19;-20206.94;;;26.00;73.80
7058;BME280;3570;43.080;25.628;2022-09-30T08:19:03;-20212.84;;;26.21;73.21
7058;BME280;3570;43.080;25.628;2022-09-30T08:21:48;-20211.13;;;26.15;72.27
7058;BME280;3570;43.080;25.628;2022-09-30T08:24:32;-20222.94;;;26.56;73.04
7058;BME280;3570;43.080;25.628;2022-09-30T08:27:16;-20218.31;;;26.40;70.82
7058;BME280;3570;43.080;25.628;2022-09-30T08:30:00;-20233.31;;;26.92;72.48
7058;BME280;3570;43.080;25.628;2022-09-30T08:32:44;-20236.78;;;27.04;70.84
7058;BME280;3570;43.080;25.628;2022-09-30T08:35:28;-20246.69;;;27.39;68.52
7058;BME280;3570;43.080;25.628;2022-09-30T08:38:12;-20272.03;;;28.27;63.71
7058;BME280;3570;43.080;25.628;2022-09-30T08:49:56;-20392.88;;;32.51;43.93
7058;BME280;3570;43.080;25.628;2022-09-30T08:52:51;-20409.22;;;33.08;41.24
7058;BME280;3570;43.080;25.628;2022-09-30T08:55:43;-20404.47;;;32.91;40.55
7058;BME280;3570;43.080;25.628;2022-09-30T09:01:23;-20429.81;;;33.80;37.63
7058;BME280;3570;43.080;25.628;2022-09-30T09:04:11;-20437.09;;;34.06;36.77
7058;BME280;3570;43.080;25.628;2022-09-30T09:10:44;-20427.38;;;33.72;36.99
7058;BME280;3570;43.080;25.628;2022-09-30T09:16:48;-20402.78;;;32.85;39.89
7058;BME280;3570;43.080;25.628;2022-09-30T09:19:42;-20441.38;;;34.21;37.79
7058;BME280;3570;43.080;25.628;2022-09-30T09:22:31;-20457.97;;;34.79;36.57
7058;BME280;3570;43.080;25.628;2022-09-30T09:25:25;-20446.97;;;34.41;38.25
7058;BME280;3570;43.080;25.628;2022-09-30T09:28:35;-20452.97;;;34.62;37.48
7058;BME280;3570;43.080;25.628;2022-09-30T09:31:21;-20458.25;;;34.80;37.10
7058;BME280;3570;43.080;25.628;2022-09-30T09:34:10;-20457.53;;;34.78;36.16
7058;BME280;3570;43.080;25.628;2022-09-30T09:40:09;-20481.53;;;35.62;34.04
7058;BME280;3570;43.080;25.628;2022-09-30T09:43:12;-20469.38;;;35.20;33.65
7058;BME280;3570;43.080;25.628;2022-09-30T09:54:55;-20388.44;;;32.35;37.59
7058;BME280;3570;43.080;25.628;2022-09-30T09:57:39;-20408.06;;;33.04;36.60
7058;BME280;3570;43.080;25.628;2022-09-30T10:00:24;-20415.94;;;33.32;37.32
7058;BME280;3570;43.080;25.628;2022-09-30T10:03:44;-20496.06;;;36.14;33.17
7058;BME280;3570;43.080;25.628;2022-09-30T10:06:42;-20488.66;;;35.87;31.49
7058;BME280;3570;43.080;25.628;2022-09-30T10:09:36;-20463.53;;;34.99;32.40
7058;BME280;3570;43.080;25.628;2022-09-30T10:12:26;-20468.38;;;35.16;30.51
7058;BME280;3570;43.080;25.628;2022-09-30T10:15:18;-20477.25;;;35.47;31.01
7058;BME280;3570;43.080;25.628;2022-09-30T10:18:03;-20493.78;;;36.06;30.34
7058;BME280;3570;43.080;25.628;2022-09-30T10:20:53;-20507.63;;;36.54;30.03
7058;BME280;3570;43.080;25.628;2022-09-30T10:23:39;-20526.28;;;37.20;28.41
7058;BME280;3570;43.080;25.628;2022-09-30T10:26:26;-20498.78;;;36.23;30.24
7058;BME280;3570;43.080;25.628;2022-09-30T10:29:25;-20549.19;;;38.01;28.52
7058;BME280;3570;43.080;25.628;2022-09-30T10:32:11;-20527.72;;;37.25;28.76
7058;BME280;3570;43.080;25.628;2022-09-30T10:35:05;-20499.63;;;36.26;29.66
7058;BME280;3570;43.080;25.628;2022-09-30T10:37:57;-20491.78;;;35.99;30.16
7058;BME280;3570;43.080;25.628;2022-09-30T10:40:47;-20547.94;;;37.97;28.03
7058;BME280;3570;43.080;25.628;2022-09-30T10:43:36;-20592.84;;;39.56;27.84
7058;BME280;3570;43.080;25.628;2022-09-30T10:46:26;-20609.03;;;40.13;27.35
7058;BME280;3570;43.080;25.628;2022-09-30T10:52:21;-20548.50;;;37.99;27.39
7058;BME280;3570;43.080;25.628;2022-09-30T10:55:08;-20492.94;;;36.03;30.04
7058;BME280;3570;43.080;25.628;2022-09-30T10:58:35;-20514.31;;;36.78;29.46
7058;BME280;3570;43.080;25.628;2022-09-30T11:01:35;-20587.88;;;39.38;26.58
7058;BME280;3570;43.080;25.628;2022-09-30T11:10:07;-20689.78;;;42.99;21.95
7058;BME280;3570;43.080;25.628;2022-09-30T11:24:53;-20682.69;;;42.74;21.99
7058;BME280;3570;43.080;25.628;2022-09-30T11:35:03;-20567.84;;;38.67;25.28
7058;BME280;3570;43.080;25.628;2022-09-30T11:37:50;-20590.56;;;39.47;24.36
7058;BME280;3570;43.080;25.628;2022-09-30T11:49:38;-20640.94;;;41.26;22.09
7058;BME280;3570;43.080;25.628;2022-09-30T11:52:36;-20595.25;;;39.64;23.48
7058;BME280;3570;43.080;25.628;2022-09-30T11:58:30;-20667.44;;;42.20;21.12
7058;BME280;3570;43.080;25.628;2022-09-30T12:04:10;-20673.94;;;42.43;20.37
7058;BME280;3570;43.080;25.628;2022-09-30T12:07:24;-20631.16;;;40.91;21.95
7058;BME280;3570;43.080;25.628;2022-09-30T12:10:28;-20630.03;;;40.87;22.19
7058;BME280;3570;43.080;25.628;2022-09-30T12:13:36;-20624.06;;;40.66;22.71
7058;BME280;3570;43.080;25.628;2022-09-30T12:16:23;-20639.38;;;41.20;21.86
7058;BME280;3570;43.080;25.628;2022-09-30T12:19:19;-20650.84;;;41.61;21.35
7058;BME280;3570;43.080;25.628;2022-09-30T12:22:11;-20672.94;;;42.40;20.47
7058;BME280;3570;43.080;25.628;2022-09-30T12:24:57;-20646.59;;;41.46;21.36
7058;BME280;3570;43.080;25.628;2022-09-30T12:28:37;-20663.47;;;42.06;21.17
7058;BME280;3570;43.080;25.628;2022-09-30T12:49:30;-20753.31;;;45.26;18.70
7058;BME280;3570;43.080;25.628;2022-09-30T12:52:18;-20713.38;;;43.83;19.45
7058;BME280;3570;43.080;25.628;2022-09-30T12:55:15;-20692.88;;;43.11;19.14
7058;BME280;3570;43.080;25.628;2022-09-30T12:58:03;-20647.75;;;41.50;19.72
7058;BME280;3570;43.080;25.628;2022-09-30T13:01:00;-20698.41;;;43.30;19.02
7058;BME280;3570;43.080;25.628;2022-09-30T13:04:14;-20692.59;;;43.10;18.37
7058;BME280;3570;43.080;25.628;2022-09-30T13:12:44;-20768.66;;;45.81;16.64
7058;BME280;3570;43.080;25.628;2022-09-30T13:23:49;-20767.97;;;45.78;18.49
7058;BME280;3570;43.080;25.628;2022-09-30T13:26:43;-20759.50;;;45.48;18.33
7058;BME280;3570;43.080;25.628;2022-09-30T13:29:32;-20729.34;;;44.40;18.75
7058;BME280;3570;43.080;25.628;2022-09-30T13:32:33;-20698.69;;;43.31;18.53
7058;BME280;3570;43.080;25.628;2022-09-30T13:38:34;-20753.31;;;45.26;17.77
7058;BME280;3570;43.080;25.628;2022-09-30T13:41:23;-20751.91;;;45.21;17.92
7058;BME280;3570;43.080;25.628;2022-09-30T13:44:15;-20714.38;;;43.87;18.59
7058;BME280;3570;43.080;25.628;2022-09-30T13:47:32;-20683.84;;;42.78;19.10
7058;BME280;3570;43.080;25.628;2022-09-30T13:50:19;-20739.91;;;44.78;17.87
7058;BME280;3570;43.080;25.628;2022-09-30T13:53:06;-20759.22;;;45.47;17.01
7058;BME280;3570;43.080;25.628;2022-09-30T13:55:58;-20753.72;;;45.27;17.19
7058;BME280;3570;43.080;25.628;2022-09-30T14:02:11;-20693.59;;;43.13;18.71
7058;BME280;3570;43.080;25.628;2022-09-30T14:05:26;-20664.03;;;42.08;20.34
7058;BME280;3570;43.080;25.628;2022-09-30T14:14:49;-20760.63;;;45.52;17.39
7058;BME280;3570;43.080;25.628;2022-09-30T14:23:35;-20677.03;;;42.54;20.25
7058;BME280;3570;43.080;25.628;2022-09-30T14:32:27;-20710.41;;;43.73;18.64
7058;BME280;3570;43.080;25.628;2022-09-30T14:35:17;-20767.25;;;45.76;17.44
7058;BME280;3570;43.080;25.628;2022-09-30T14:38:14;-20801.88;;;46.99;16.75
7058;BME280;3570;43.080;25.628;2022-09-30T14:41:06;-20811.56;;;47.34;16.48
7058;BME280;3570;43.080;25.628;2022-09-30T14:43:58;-20800.47;;;46.94;16.41
7058;BME280;3570;43.080;25.628;2022-09-30T14:46:49;-20802.88;;;47.03;16.55
7058;BME280;3570;43.080;25.628;2022-09-30T14:49:34;-20803.00;;;47.03;16.65
7058;BME280;3570;43.080;25.628;2022-09-30T14:52:40;-20801.59;;;46.98;16.50
7058;BME280;3570;43.080;25.628;2022-09-30T14:55:34;-20782.03;;;46.28;17.10
7058;BME280;3570;43.080;25.628;2022-09-30T15:01:12;-20737.78;;;44.70;18.39
7058;BME280;3570;43.080;25.628;2022-09-30T15:04:05;-20720.00;;;44.07;18.44
7058;BME280;3570;43.080;25.628;2022-09-30T15:06:52;-20679.44;;;42.63;19.84
7058;BME280;3570;43.080;25.628;2022-09-30T15:09:38;-20689.91;;;43.00;19.77
7058;BME280;3570;43.080;25.628;2022-09-30T15:12:24;-20686.66;;;42.88;19.36
7058;BME280;3570;43.080;25.628;2022-09-30T15:15:32;-20681.84;;;42.71;20.34
7058;BME280;3570;43.080;25.628;2022-09-30T15:18:43;-20666.00;;;42.15;19.93
7058;BME280;3570;43.080;25.628;2022-09-30T15:21:29;-20652.13;;;41.66;20.31
7058;BME280;3570;43.080;25.628;2022-09-30T15:24:19;-20635.41;;;41.06;21.30
7058;BME280;3570;43.080;25.628;2022-09-30T15:27:04;-20609.59;;;40.15;21.95
7058;BME280;3570;43.080;25.628;2022-09-30T15:29:54;-20595.13;;;39.64;22.18
7058;BME280;3570;43.080;25.628;2022-09-30T15:32:38;-20590.00;;;39.45;22.83
7058;BME280;3570;43.080;25.628;2022-09-30T15:35:23;-20583.31;;;39.22;22.95
7058;BME280;3570;43.080;25.628;2022-09-30T15:38:09;-20567.69;;;38.67;23.65
7058;BME280;3570;43.080;25.628;2022-09-30T15:41:09;-20537.25;;;37.59;24.69
7058;BME280;3570;43.080;25.628;2022-09-30T15:43:53;-20503.78;;;36.41;25.54
7058;BME280;3570;43.080;25.628;2022-09-30T15:46:38;-20463.97;;;35.00;27.96
7058;BME280;3570;43.080;25.628;2022-09-30T15:55:39;-20321.47;;;30.00;34.93
7058;BME280;3570;43.080;25.628;2022-09-30T16:01:20;-20281.38;;;28.60;39.59
7058;BME280;3570;43.080;25.628;2022-09-30T16:04:11;-20261.38;;;27.90;38.95
7058;BME280;3570;43.080;25.628;2022-09-30T16:07:08;-20253.03;;;27.61;41.66
7058;BME280;3570;43.080;25.628;2022-09-30T16:09:54;-20243.81;;;27.29;41.83
7058;BME280;3570;43.080;25.628;2022-09-30T16:12:41;-20234.75;;;26.97;42.85
7058;BME280;3570;43.080;25.628;2022-09-30T16:15:36;-20224.66;;;26.62;44.00
7058;BME280;3570;43.080;25.628;2022-09-30T16:18:25;-20219.47;;;26.44;45.31
7058;BME280;3570;43.080;25.628;2022-09-30T16:27:24;-20201.16;;;25.80;51.55
7058;BME280;3570;43.080;25.628;2022-09-30T16:30:13;-20192.22;;;25.49;58.75
7058;BME280;3570;43.080;25.628;2022-09-30T16:33:02;-20191.34;;;25.46;62.07
7058;BME280;3570;43.080;25.628;2022-09-30T16:35:47;-20184.16;;;25.21;62.89
7058;BME280;3570;43.080;25.628;2022-09-30T16:38:32;-20176.22;;;24.93;64.74
7058;BME280;3570;43.080;25.628;2022-09-30T16:41:15;-20170.59;;;24.73;66.24
7058;BME280;3570;43.080;25.628;2022-09-30T16:43:59;-20166.53;;;24.59;67.52
7058;BME280;3570;43.080;25.628;2022-09-30T16:46:44;-20163.34;;;24.48;68.93
7058;BME280;3570;43.080;25.628;2022-09-30T16:49:28;-20154.13;;;24.16;68.78
7058;BME280;3570;43.080;25.628;2022-09-30T16:52:12;-20145.59;;;23.86;68.35
7058;BME280;3570;43.080;25.628;2022-09-30T16:54:57;-20134.63;;;23.48;69.79
7058;BME280;3570;43.080;25.628;2022-09-30T16:57:41;-20132.00;;;23.39;69.63
7058;BME280;3570;43.080;25.628;2022-09-30T17:00:27;-20139.97;;;23.67;64.93
7058;BME280;3570;43.080;25.628;2022-09-30T17:03:13;-20141.25;;;23.71;65.07
7058;BME280;3570;43.080;25.628;2022-09-30T17:05:58;-20145.75;;;23.87;64.64
7058;BME280;3570;43.080;25.628;2022-09-30T17:08:42;-20137.94;;;23.60;72.88
7058;BME280;3570;43.080;25.628;2022-09-30T17:11:29;-20140.81;;;23.70;74.15
7058;BME280;3570;43.080;25.628;2022-09-30T17:14:15;-20132.44;;;23.41;76.83
7058;BME280;3570;43.080;25.628;2022-09-30T17:17:00;-20127.25;;;23.22;77.65
7058;BME280;3570;43.080;25.628;2022-09-30T17:19:44;-20115.38;;;22.81;78.05
7058;BME280;3570;43.080;25.628;2022-09-30T17:22:28;-20108.72;;;22.58;79.37
7058;BME280;3570;43.080;25.628;2022-09-30T17:25:12;-20106.13;;;22.49;81.00
7058;BME280;3570;43.080;25.628;2022-09-30T17:27:56;-20113.38;;;22.74;81.31
7058;BME280;3570;43.080;25.628;2022-09-30T17:30:43;-20105.53;;;22.47;83.38
7058;BME280;3570;43.080;25.628;2022-09-30T17:33:32;-20096.00;;;22.14;83.73
7058;BME280;3570;43.080;25.628;2022-09-30T17:37:22;-20089.34;;;21.91;83.56
7058;BME280;3570;43.080;25.628;2022-09-30T17:40:07;-20093.69;;;22.06;84.11
7058;BME280;3570;43.080;25.628;2022-09-30T17:43:29;-20099.03;;;22.24;83.01
7058;BME280;3570;43.080;25.628;2022-09-30T17:46:15;-20099.47;;;22.26;81.92
7058;BME280;3570;43.080;25.628;2022-09-30T17:49:01;-20094.41;;;22.08;84.33
7058;BME280;3570;43.080;25.628;2022-09-30T17:51:45;-20083.84;;;21.72;87.60
7058;BME280;3570;43.080;25.628;2022-09-30T17:54:29;-20068.63;;;21.19;90.92
7058;BME280;3570;43.080;25.628;2022-09-30T17:57:14;-20073.41;;;21.35;84.66
7058;BME280;3570;43.080;25.628;2022-09-30T17:59:58;-20070.81;;;21.26;84.94
7058;BME280;3570;43.080;25.628;2022-09-30T18:02:43;-20064.88;;;21.06;85.20
7058;BME280;3570;43.080;25.628;2022-09-30T18:05:28;-20067.34;;;21.14;86.05